Mt Hood
Mt. Hood Meadows Ski Area
Latest observation 08/31 20:00 PDT
| Time (PDT) | Temp °F 6540' | Temp °F 5380' | RH % 6540' | RH % 5380' | Min mph 6540' | Spd mph 6540' | Gust mph 6540' | Dir ° 6540' | Pcp1 in 5380' | PcpSum in 5380' | 24Sno in 5380' | SnoHt in 5380' | Pres millibar 5380' |
|---|---|---|---|---|---|---|---|---|---|---|---|---|---|
| 08/31 20:00 | – | 57 | – | 47 | – | – | – | – | 0.00 | 0.07 | -150.7 | 10.5 | 1015 |
| 08/31 19:00 | – | 60 | – | 41 | – | – | – | – | 0.00 | 0.07 | -150.6 | 10.9 | 1015 |
| 08/31 18:00 | – | 66 | – | 30 | – | – | – | – | 0.00 | 0.07 | -148.7 | 12.1 | 1015 |
| 08/31 17:00 | – | 67 | – | 27 | – | – | – | – | 0.00 | 0.07 | -147.0 | 12.0 | 1015 |
| 08/31 16:00 | – | 68 | – | 24 | – | – | – | – | 0.00 | 0.07 | -143.9 | -1.8 | 1015 |
| 08/31 15:00 | – | 69 | – | 22 | – | – | – | – | 0.00 | 0.07 | -142.9 | 13.4 | 1016 |
| 08/31 14:00 | – | 68 | – | 22 | – | – | – | – | 0.00 | 0.07 | -142.1 | 13.4 | 1016 |
| 08/31 13:00 | – | 67 | – | 20 | – | – | – | – | 0.00 | 0.07 | -145.7 | 13.0 | 1016 |
| 08/31 12:00 | – | 63 | – | 25 | – | – | – | – | 0.00 | 0.07 | -149.5 | -2.3 | 1017 |
| 08/31 11:00 | – | 62 | – | 26 | – | – | – | – | 0.00 | 0.07 | -151.0 | 12.4 | 1017 |
| 08/31 10:00 | – | 61 | – | 27 | – | – | – | – | 0.00 | 0.07 | -151.8 | 13.2 | 1016 |
| 08/31 09:00 | – | 59 | – | 28 | – | – | – | – | 0.00 | 0.07 | -150.7 | 14.0 | 1017 |
| 08/31 08:00 | – | 55 | – | 41 | – | – | – | – | 0.00 | 0.07 | -150.6 | 11.3 | 1016 |
| 08/31 07:00 | – | 48 | – | 53 | – | – | – | – | 0.00 | 0.07 | -149.9 | 13.3 | 1016 |
| 08/31 06:00 | – | 48 | – | 52 | – | – | – | – | 0.00 | 0.07 | -149.8 | 12.8 | 1016 |
| 08/31 05:00 | – | 48 | – | 55 | – | – | – | – | 0.00 | 0.07 | -149.7 | 13.5 | 1016 |
| 08/31 04:00 | – | 48 | – | 55 | – | – | – | – | 0.00 | 0.07 | -150.8 | 13.2 | 1017 |
| 08/31 03:00 | – | 48 | – | 58 | – | – | – | – | 0.00 | 0.07 | -149.6 | 12.6 | 1017 |
| 08/31 02:00 | – | 49 | – | 60 | – | – | – | – | 0.00 | 0.07 | -150.1 | 12.7 | 1017 |
| 08/31 01:00 | – | 49 | – | 59 | – | – | – | – | 0.00 | 0.07 | -150.2 | 12.1 | 1018 |
| 08/31 00:00 | – | 50 | – | 56 | – | – | – | – | 0.00 | 0.07 | -150.5 | 12.7 | 1018 |
| 08/30 23:00 | – | 50 | – | 58 | – | – | – | – | 0.00 | 0.07 | -149.9 | -3.0 | 1018 |
| 08/30 22:00 | – | 50 | – | 60 | – | – | – | – | 0.00 | 0.07 | -149.2 | 12.1 | 1018 |
| 08/30 21:00 | – | 50 | – | 59 | – | – | – | – | 0.00 | 0.07 | -149.6 | 12.5 | 1019 |
| 08/30 20:00 | – | 50 | – | 64 | – | – | – | – | 0.00 | 0.07 | -150.9 | 11.4 | 1018 |
| 08/30 19:00 | – | 53 | – | 60 | – | – | – | – | 0.00 | 0.07 | -150.6 | 12.5 | 1019 |
| 08/30 18:00 | – | 57 | – | 48 | – | – | – | – | 0.00 | 0.07 | -148.8 | 12.7 | 1019 |
| 08/30 17:00 | – | 59 | – | 45 | – | – | – | – | 0.00 | 0.07 | -149.1 | 12.9 | 1019 |
| 08/30 16:00 | – | 59 | – | 46 | – | – | – | – | 0.00 | 0.07 | -149.7 | 12.8 | 1019 |
| 08/30 15:00 | – | 60 | – | 43 | – | – | – | – | 0.00 | 0.07 | -148.3 | 4.8 | 1020 |
| 08/30 14:00 | – | 58 | – | 44 | – | – | – | – | 0.00 | 0.07 | -146.3 | 12.3 | 1020 |
| 08/30 13:00 | – | 58 | – | 45 | – | – | – | – | 0.00 | 0.07 | -148.5 | 12.3 | 1020 |
| 08/30 12:00 | – | 55 | – | 50 | – | – | – | – | 0.00 | 0.07 | -149.7 | 11.3 | 1020 |
| 08/30 11:00 | – | 53 | – | 49 | – | – | – | – | 0.00 | 0.07 | -149.5 | 12.8 | 1019 |
| 08/30 10:00 | – | 50 | – | 48 | – | – | – | – | 0.00 | 0.07 | -151.1 | 12.9 | 1019 |
| 08/30 09:00 | – | 48 | – | 49 | – | – | – | – | 0.00 | 0.07 | -150.6 | 13.3 | 1019 |
| 08/30 08:00 | – | 43 | – | 56 | – | – | – | – | 0.00 | 0.07 | -150.2 | 13.3 | 1019 |
| 08/30 07:00 | – | 38 | – | 60 | – | – | – | – | 0.00 | 0.07 | -150.6 | 12.4 | 1018 |
| 08/30 06:00 | – | 37 | – | 59 | – | – | – | – | 0.00 | 0.07 | -149.8 | 13.2 | 1018 |
| 08/30 05:00 | – | 37 | – | 61 | – | – | – | – | 0.00 | 0.07 | -151.3 | 13.2 | 1018 |
| 08/30 04:00 | – | 36 | – | 64 | – | – | – | – | 0.00 | 0.07 | -150.4 | 12.1 | 1018 |
| 08/30 03:00 | – | 37 | – | 64 | – | – | – | – | 0.00 | 0.07 | -151.4 | 13.8 | 1018 |
| 08/30 02:00 | – | 37 | – | 67 | – | – | – | – | 0.00 | 0.07 | -151.6 | 13.4 | 1018 |
| 08/30 01:00 | – | 36 | – | 72 | – | – | – | – | 0.00 | 0.07 | -150.1 | 12.9 | 1018 |
| 08/30 00:00 | – | 37 | – | 69 | – | – | – | – | 0.00 | 0.07 | -149.1 | 12.4 | 1018 |
| 08/29 23:00 | – | 38 | – | 71 | – | – | – | – | 0.00 | 0.07 | -150.7 | 12.7 | 1018 |
| 08/29 22:00 | – | 40 | – | 74 | – | – | – | – | 0.00 | 0.07 | -150.3 | 12.8 | 1018 |
| 08/29 21:00 | – | 40 | – | 82 | – | – | – | – | 0.00 | 0.07 | -150.7 | 12.8 | 1019 |
| 08/29 20:00 | – | 44 | – | 69 | – | – | – | – | 0.00 | 0.07 | -150.3 | 9.9 | 1018 |
| 08/29 19:00 | – | 44 | – | 70 | – | – | – | – | 0.00 | 0.07 | -150.3 | 13.5 | 1018 |
| 08/29 18:00 | – | 45 | – | 67 | – | – | – | – | 0.00 | 0.07 | -150.1 | 13.3 | 1018 |
| 08/29 17:00 | – | 45 | – | 69 | – | – | – | – | 0.00 | 0.07 | -149.6 | 12.9 | 1018 |
| 08/29 16:00 | – | 45 | – | 67 | – | – | – | – | 0.00 | 0.07 | -149.3 | 12.4 | 1019 |
| 08/29 15:00 | – | 46 | – | 65 | – | – | – | – | 0.00 | 0.07 | -150.3 | 12.2 | 1018 |
| 08/29 14:00 | – | 46 | – | 67 | – | – | – | – | 0.00 | 0.07 | -149.6 | 13.2 | 1018 |
| 08/29 13:00 | – | 45 | – | 63 | – | – | – | – | 0.01 | 0.07 | -150.6 | 12.6 | 1018 |
| 08/29 12:00 | – | 44 | – | 67 | – | – | – | – | 0.00 | 0.06 | -150.6 | -1.4 | 1018 |
| 08/29 11:00 | – | 41 | – | 82 | – | – | – | – | 0.00 | 0.06 | -151.9 | 10.6 | 1017 |
| 08/29 10:00 | – | 41 | – | 75 | – | – | – | – | 0.00 | 0.06 | -151.8 | 13.2 | 1017 |
| 08/29 09:00 | – | 41 | – | 86 | – | – | – | – | 0.03 | 0.06 | -151.7 | 12.2 | 1016 |
| 08/29 08:00 | – | 40 | – | 90 | – | – | – | – | 0.03 | 0.03 | -151.0 | 9.7 | 1016 |
| 08/29 07:00 | – | 40 | – | 87 | – | – | – | – | 0.00 | 0.00 | -150.8 | 10.8 | 1016 |
| 08/29 06:00 | – | 41 | – | 72 | – | – | – | – | 0.00 | 0.00 | -152.2 | 3.3 | 1016 |
| 08/29 05:00 | – | 41 | – | 66 | – | – | – | – | 0.00 | 0.00 | -149.9 | -1.0 | 1016 |
| 08/29 04:00 | – | 43 | – | 72 | – | – | – | – | 0.00 | 0.00 | -150.4 | 13.8 | 1016 |
| 08/29 03:00 | – | 45 | – | 69 | – | – | – | – | 0.00 | 0.00 | -151.2 | 13.3 | 1016 |
| 08/29 02:00 | – | 45 | – | 71 | – | – | – | – | 0.00 | 0.00 | -151.4 | 13.1 | 1016 |
| 08/29 01:00 | – | 47 | – | 70 | – | – | – | – | 0.00 | 0.00 | -151.5 | 13.1 | 1016 |
| 08/29 00:00 | – | 47 | – | 67 | – | – | – | – | 0.00 | 0.00 | -149.9 | 13.2 | 1016 |
| 08/28 23:00 | – | 51 | – | 49 | – | – | – | – | 0.00 | 0.00 | -149.9 | -2.2 | 1016 |
| 08/28 22:00 | – | 49 | – | 64 | – | – | – | – | 0.00 | 0.00 | -151.8 | 11.4 | 1016 |
| 08/28 21:00 | – | 52 | – | 42 | – | – | – | – | 0.00 | 0.00 | -150.5 | 11.8 | 1016 |
| 08/28 20:00 | – | 53 | – | 38 | – | – | – | – | 0.00 | 0.00 | -150.7 | 13.0 | 1017 |
| 08/28 19:00 | – | 55 | – | 32 | – | – | – | – | 0.00 | 0.00 | -151.1 | 13.4 | 1017 |
| 08/28 18:00 | – | 56 | – | 47 | – | – | – | – | 0.00 | 0.00 | -150.1 | 13.3 | 1017 |
| 08/28 17:00 | – | 58 | – | 48 | – | – | – | – | 0.00 | 0.00 | -149.3 | 13.3 | 1018 |
| 08/28 16:00 | – | 61 | – | 37 | – | – | – | – | 0.00 | 0.00 | -148.4 | 12.8 | 1018 |
| 08/28 15:00 | – | 62 | – | 43 | – | – | – | – | 0.00 | 0.00 | -148.4 | 11.9 | 1018 |
| 08/28 14:00 | – | 61 | – | 46 | – | – | – | – | 0.00 | 0.00 | -148.0 | 10.4 | 1019 |
| 08/28 13:00 | – | 62 | – | 40 | – | – | – | – | 0.00 | 0.00 | -148.3 | 12.3 | 1019 |
| 08/28 12:00 | – | 61 | – | 36 | – | – | – | – | 0.00 | 0.00 | -151.6 | 12.3 | 1019 |
| 08/28 11:00 | – | 57 | – | 60 | – | – | – | – | 0.00 | 0.00 | -151.8 | 10.4 | 1019 |
| 08/28 10:00 | – | 55 | – | 58 | – | – | – | – | 0.00 | 0.00 | -151.3 | 13.2 | 1019 |
| 08/28 09:00 | – | 55 | – | 43 | – | – | – | – | 0.00 | 0.00 | -152.9 | 13.1 | 1019 |
| 08/28 08:00 | – | 49 | – | 52 | – | – | – | – | 0.00 | 0.00 | -151.2 | 13.5 | 1018 |
| 08/28 07:00 | – | 44 | – | 48 | – | – | – | – | 0.00 | 0.00 | -150.3 | 13.8 | 1018 |
| 08/28 06:00 | – | 44 | – | 48 | – | – | – | – | 0.00 | 0.00 | -151.7 | 13.5 | 1018 |
| 08/28 05:00 | – | 44 | – | 44 | – | – | – | – | 0.00 | 0.00 | -149.2 | 13.3 | 1018 |
| 08/28 04:00 | – | 45 | – | 46 | – | – | – | – | 0.00 | 0.00 | -150.0 | 13.2 | 1018 |
| 08/28 03:00 | – | 45 | – | 44 | – | – | – | – | 0.00 | 0.00 | -150.6 | 13.6 | 1018 |
| 08/28 02:00 | – | 45 | – | 50 | – | – | – | – | 0.00 | 0.00 | -151.4 | 12.8 | 1018 |
| 08/28 01:00 | – | 46 | – | 48 | – | – | – | – | 0.00 | 0.00 | -150.9 | 13.2 | 1019 |
| 08/28 00:00 | – | 44 | – | 62 | – | – | – | – | 0.00 | 0.00 | -151.6 | 13.3 | 1019 |
| 08/27 23:00 | – | 45 | – | 82 | – | – | – | – | 0.00 | 0.00 | -150.6 | 8.7 | 1019 |
| 08/27 22:00 | – | 51 | – | 66 | – | – | – | – | 0.00 | 0.00 | -151.8 | 11.3 | 1019 |
| 08/27 21:00 | – | 50 | – | 66 | – | – | – | – | 0.00 | 0.00 | -151.5 | 12.6 | 1019 |
| 08/27 20:00 | – | 56 | – | 31 | – | – | – | – | 0.00 | 0.00 | -150.2 | 13.1 | 1019 |
| 08/27 19:00 | – | 57 | – | 32 | – | – | – | – | 0.00 | 0.00 | -151.2 | 5.3 | 1019 |
| 08/27 18:00 | – | 58 | – | 30 | – | – | – | – | 0.00 | 0.00 | -149.7 | 12.7 | 1019 |
| 08/27 17:00 | – | 59 | – | 35 | – | – | – | – | 0.00 | 0.00 | -150.1 | 4.6 | 1019 |
| 08/27 16:00 | – | 59 | – | 41 | – | – | – | – | 0.00 | 0.00 | -149.7 | 10.4 | 1020 |
| 08/27 15:00 | – | 59 | – | 44 | – | – | – | – | 0.00 | 0.00 | -149.2 | 11.4 | 1020 |
| 08/27 14:00 | – | 59 | – | 41 | – | – | – | – | 0.00 | 0.00 | -149.2 | 13.3 | 1020 |
| 08/27 13:00 | – | 57 | – | 44 | – | – | – | – | 0.00 | 0.00 | -149.6 | 5.4 | 1020 |
| 08/27 12:00 | – | 56 | – | 47 | – | – | – | – | 0.00 | 0.00 | -150.0 | 10.9 | 1020 |
| 08/27 11:00 | – | 54 | – | 61 | – | – | – | – | 0.00 | 0.00 | -150.9 | 10.7 | 1020 |
| 08/27 10:00 | – | 52 | – | 67 | – | – | – | – | 0.00 | 0.00 | -151.1 | 10.7 | 1019 |
| 08/27 09:00 | – | 53 | – | 64 | – | – | – | – | 0.00 | 0.00 | -152.6 | 10.2 | 1019 |
| 08/27 08:00 | – | 51 | – | 70 | – | – | – | – | 0.00 | 0.00 | -151.0 | 9.8 | 1019 |
| 08/27 07:00 | 45 | 51 | 75 | 79 | 8 | 20 | 35 | 250 | 0.00 | 0.00 | -152.1 | 11.3 | 1019 |
| 08/27 06:00 | 46 | 52 | 76 | 78 | 5 | 18 | 31 | 249 | 0.00 | 0.00 | -151.1 | 11.0 | 1019 |
| 08/27 05:00 | 47 | 53 | 79 | 78 | 7 | 19 | 31 | 247 | 0.00 | 0.00 | -151.3 | 11.4 | 1019 |
| 08/27 04:00 | 49 | 55 | 75 | 71 | 8 | 17 | 29 | 242 | 0.00 | 0.00 | -152.8 | 9.7 | 1019 |
| 08/27 03:00 | 52 | 57 | 66 | 65 | 7 | 20 | 32 | 231 | 0.00 | 0.00 | -151.6 | 9.8 | 1019 |
| 08/27 02:00 | 53 | 58 | 59 | 58 | 10 | 22 | 33 | 231 | 0.00 | 0.00 | -152.2 | 10.0 | 1019 |
| 08/27 01:00 | 52 | 57 | 61 | 64 | 9 | 20 | 40 | 243 | 0.00 | 0.00 | -151.4 | 10.6 | 1019 |
| 08/27 00:00 | 52 | 57 | 64 | 66 | 9 | 19 | 33 | 251 | 0.00 | 0.00 | -150.2 | 10.0 | 1020 |
| 08/26 23:00 | 53 | 58 | 56 | 60 | 8 | 26 | 43 | 258 | 0.00 | 0.00 | -150.7 | 11.4 | 1019 |
| 08/26 22:00 | 54 | 59 | 50 | 53 | 19 | 32 | 49 | 261 | 0.00 | 0.00 | -150.4 | -1.5 | 1019 |
| 08/26 21:00 | 55 | 59 | 46 | 55 | 14 | 29 | 46 | 252 | 0.00 | 0.00 | -150.6 | 11.8 | 1019 |
| 08/26 20:00 | 55 | 59 | 47 | 50 | 10 | 27 | 46 | 254 | 0.00 | 0.00 | -151.4 | 4.0 | 1019 |
| 08/26 19:00 | 55 | 60 | 33 | 42 | 10 | 26 | 46 | 251 | 0.00 | 0.00 | -149.7 | 11.0 | 1020 |
| 08/26 18:00 | 57 | 62 | 31 | 37 | 9 | 21 | 34 | 243 | 0.00 | 0.00 | -149.3 | 11.5 | 1020 |
| 08/26 17:00 | 57 | 63 | 40 | 40 | 8 | 17 | 29 | 246 | 0.00 | 0.00 | -148.7 | 12.9 | 1020 |
| 08/26 16:00 | 59 | 65 | 40 | 40 | 8 | 19 | 33 | 233 | 0.00 | 0.00 | -147.6 | 10.6 | 1020 |
| 08/26 15:00 | 60 | 67 | 35 | 34 | 7 | 18 | 30 | 224 | 0.00 | 0.00 | -147.0 | 13.1 | 1021 |
| 08/26 14:00 | 60 | 67 | 32 | 34 | 4 | 13 | 25 | 219 | 0.00 | 0.00 | -146.4 | 9.9 | 1021 |
| 08/26 13:00 | 60 | 67 | 31 | 31 | 7 | 16 | 26 | 226 | 0.00 | 0.00 | -147.0 | 11.0 | 1021 |
| 08/26 12:00 | 60 | 67 | 27 | 30 | 2 | 12 | 22 | 232 | 0.00 | 0.00 | -149.2 | 12.3 | 1021 |
| 08/26 11:00 | 60 | 66 | 19 | 23 | 4 | 11 | 20 | 234 | 0.00 | 0.00 | -150.6 | 14.3 | 1021 |
| 08/26 10:00 | 59 | 65 | 19 | 22 | 2 | 8 | 15 | 232 | 0.00 | 0.00 | -150.8 | 13.4 | 1021 |
| 08/26 09:00 | 59 | 64 | 18 | 22 | 1 | 7 | 12 | 239 | 0.00 | 0.00 | -150.5 | 14.4 | 1021 |
| 08/26 08:00 | 58 | 62 | 20 | 22 | 2 | 8 | 15 | 252 | 0.00 | 0.00 | -151.7 | 14.4 | 1020 |
| 08/26 07:00 | 58 | 58 | 25 | 31 | 8 | 12 | 15 | 259 | 0.00 | 0.00 | -151.2 | 13.2 | 1020 |
| 08/26 06:00 | 58 | 58 | 24 | 27 | 6 | 12 | 18 | 259 | 0.00 | 0.00 | -151.8 | 0.7 | 1020 |
| 08/26 05:00 | 58 | 59 | 26 | 29 | 0 | 8 | 12 | 260 | 0.00 | 0.00 | -150.3 | 11.0 | 1020 |
| 08/26 04:00 | 59 | 59 | 29 | 29 | 0 | 6 | 14 | 269 | 0.00 | 0.00 | -150.7 | 12.0 | 1020 |
| 08/26 03:00 | 59 | 60 | 25 | 25 | 3 | 10 | 16 | 261 | 0.00 | 0.00 | -150.3 | -0.0 | 1021 |
| 08/26 02:00 | 59 | 61 | 25 | 26 | 8 | 13 | 18 | 264 | 0.00 | 0.00 | -150.6 | 13.3 | 1021 |
| 08/26 01:00 | 60 | 61 | 27 | 30 | 9 | 12 | 17 | 264 | 0.00 | 0.00 | -151.3 | 12.7 | 1021 |
| 08/26 00:00 | 60 | 61 | 25 | 27 | 8 | 12 | 20 | 259 | 0.00 | 0.00 | -150.8 | 13.4 | 1021 |
| 08/25 23:00 | 60 | 61 | 22 | 24 | 6 | 14 | 21 | 254 | 0.00 | 0.00 | -150.4 | 13.8 | 1021 |
| 08/25 22:00 | 60 | 64 | 19 | 16 | 9 | 17 | 28 | 255 | 0.00 | 0.00 | -149.6 | 1.0 | 1022 |
| 08/25 21:00 | 60 | 64 | 19 | 20 | 8 | 20 | 31 | 259 | 0.00 | 0.00 | -149.8 | 13.8 | 1021 |
| 08/25 20:00 | 61 | 65 | 23 | 25 | 7 | 17 | 30 | 257 | 0.00 | 0.00 | -149.1 | 13.8 | 1021 |
| 08/25 19:00 | 61 | 66 | 27 | 31 | 4 | 15 | 28 | 252 | 0.00 | 0.00 | -149.6 | 13.0 | 1021 |
| 08/25 18:00 | 63 | 68 | 30 | 33 | 6 | 13 | 22 | 247 | 0.00 | 0.00 | -148.2 | 13.2 | 1022 |
| 08/25 17:00 | 65 | 71 | 30 | 33 | 3 | 11 | 20 | 237 | 0.00 | 0.00 | -145.3 | 13.0 | 1022 |
| 08/25 16:00 | 66 | 71 | 30 | 31 | 1 | 10 | 18 | 229 | 0.00 | 0.00 | -141.9 | 13.0 | 1022 |
| 08/25 15:00 | 66 | 72 | 31 | 31 | 2 | 10 | 21 | 215 | 0.00 | 0.00 | -137.5 | 11.4 | 1022 |
| 08/25 14:00 | 67 | 74 | 30 | 29 | 1 | 8 | 15 | 217 | 0.00 | 0.00 | -135.8 | 12.0 | 1022 |
| 08/25 13:00 | 66 | 73 | 31 | 29 | 0 | 5 | 15 | 210 | 0.00 | 0.00 | -142.7 | 10.6 | 1022 |
| 08/25 12:00 | 66 | 72 | 30 | 29 | 0 | 3 | 10 | 160 | 0.00 | 0.00 | -148.0 | 3.9 | 1022 |
| 08/25 11:00 | 65 | 69 | 32 | 31 | 0 | 2 | 8 | 156 | 0.00 | 0.00 | -149.8 | 10.3 | 1022 |
| 08/25 10:00 | 63 | 68 | 33 | 33 | 0 | 3 | 10 | 98 | 0.00 | 0.00 | -149.9 | 10.1 | 1021 |
| 08/25 09:00 | 62 | 66 | 32 | 35 | 0 | 5 | 13 | 63 | 0.00 | 0.00 | -150.7 | 10.0 | 1021 |
| 08/25 08:00 | 60 | 62 | 32 | 44 | 2 | 8 | 18 | 49 | 0.00 | 0.00 | -151.2 | 11.6 | 1021 |
| 08/25 07:00 | 58 | 58 | 33 | 45 | 2 | 7 | 13 | 47 | 0.00 | 0.00 | -150.5 | 10.6 | 1021 |
| 08/25 06:00 | 58 | 57 | 26 | 40 | 2 | 5 | 12 | 35 | 0.00 | 0.00 | -152.1 | 13.3 | 1021 |
| 08/25 05:00 | 60 | 57 | 26 | 42 | 0 | 2 | 10 | 29 | 0.00 | 0.00 | -151.1 | 3.4 | 1021 |
| 08/25 04:00 | 60 | 57 | 25 | 38 | 0 | 1 | 5 | 51 | 0.00 | 0.00 | -150.9 | -1.7 | 1021 |
| 08/25 03:00 | 59 | 58 | 26 | 36 | 3 | 6 | 11 | 17 | 0.00 | 0.00 | -151.0 | 9.9 | 1021 |
| 08/25 02:00 | 60 | 58 | 28 | 40 | 0 | 5 | 9 | 19 | 0.00 | 0.00 | -151.6 | 10.1 | 1021 |
| 08/25 01:00 | 58 | 57 | 34 | 47 | 3 | 6 | 10 | 13 | 0.00 | 0.00 | -151.0 | 9.9 | 1021 |
| 08/25 00:00 | 58 | 56 | 34 | 50 | 0 | 6 | 13 | 30 | 0.00 | 0.00 | -151.1 | 9.7 | 1021 |
| 08/24 23:00 | 61 | 57 | 34 | 50 | 0 | 1 | 4 | 1 | 0.00 | 0.00 | -150.8 | 12.0 | 1021 |
| 08/24 22:00 | 60 | 57 | 34 | 50 | 0 | 3 | 7 | 18 | 0.00 | 0.00 | -151.1 | 11.1 | 1021 |
| 08/24 21:00 | 60 | 59 | 35 | 48 | 0 | 4 | 8 | 25 | 0.00 | 0.00 | -150.2 | 11.0 | 1021 |

